Time;durP1;ratioP1;P1;durP2;ratioP2;P2;SDS_P1;SDS_P2;PMS_P1;PMS_P2;Temp;Humidity;BMP_temperature;BMP_pressure;BME280_temperature;BME280_humidity;BME280_pressure;Samples;Min_cycle;Max_cycle;Signal;HPM_P1;HPM_P2
2022/10/28 00:00:20;;;;;;;10.10;7.30;;;21.40;86.60;;;;;;5092329;28;20483;-77
2022/10/28 00:02:49;;;;;;;7.57;6.80;;;21.40;86.60;;;;;;5089864;28;20472;-77
2022/10/28 00:05:18;;;;;;;13.10;8.70;;;21.40;86.70;;;;;;5092079;28;20548;-77
2022/10/28 00:07:46;;;;;;;12.93;9.10;;;21.30;86.50;;;;;;5091627;28;20844;-77
2022/10/28 00:10:13;;;;;;;9.53;7.90;;;21.30;86.70;;;;;;5093031;28;20441;-77
2022/10/28 00:12:41;;;;;;;7.27;6.40;;;21.30;86.80;;;;;;5094591;28;20427;-78
2022/10/28 00:15:09;;;;;;;7.43;6.37;;;21.30;86.90;;;;;;5093179;28;20434;-77
2022/10/28 00:17:38;;;;;;;7.53;6.17;;;21.30;87.00;;;;;;5092233;28;20449;-77
2022/10/28 00:20:08;;;;;;;8.60;6.07;;;21.30;87.00;;;;;;5093712;28;20476;-77
2022/10/28 00:22:36;;;;;;;6.37;5.50;;;21.30;87.00;;;;;;5091687;28;20488;-77
2022/10/28 00:25:04;;;;;;;9.93;5.77;;;21.30;87.00;;;;;;5092897;28;20444;-77
2022/10/28 00:27:32;;;;;;;6.60;5.80;;;21.30;87.10;;;;;;5093442;28;20476;-77
2022/10/28 00:29:59;;;;;;;10.27;6.37;;;21.30;87.10;;;;;;5092503;28;20448;-77
2022/10/28 00:32:28;;;;;;;6.47;5.87;;;21.30;87.20;;;;;;5090534;28;20987;-77
2022/10/28 00:34:56;;;;;;;6.67;5.97;;;21.30;87.30;;;;;;5093086;28;20426;-77
2022/10/28 00:37:26;;;;;;;6.30;5.70;;;21.30;87.20;;;;;;5092118;28;20431;-77
2022/10/28 00:39:53;;;;;;;6.40;5.70;;;21.30;87.30;;;;;;5087308;28;20454;-77
2022/10/28 00:42:21;;;;;;;6.33;5.67;;;21.30;87.40;;;;;;5091938;28;20480;-77
2022/10/28 00:44:56;;;;;;;6.37;5.47;;;21.20;87.30;;;;;;5093553;28;20480;-77
2022/10/28 00:47:42;;;;;;;7.27;5.60;;;21.30;87.30;;;;;;5077323;28;20460;-77
2022/10/28 00:50:24;;;;;;;9.40;6.63;;;21.30;87.40;;;;;;5093518;28;20423;-77
2022/10/28 00:52:55;;;;;;;6.17;5.50;;;21.20;87.40;;;;;;5093413;28;20455;-77
2022/10/28 00:55:23;;;;;;;8.20;5.90;;;21.20;87.40;;;;;;5091265;28;20423;-77
2022/10/28 00:57:55;;;;;;;6.50;5.70;;;21.20;87.40;;;;;;5093026;28;20431;-77
2022/10/28 01:00:23;;;;;;;6.60;5.70;;;21.20;87.50;;;;;;5092315;28;20437;-77
2022/10/28 01:02:51;;;;;;;6.20;5.60;;;21.20;87.60;;;;;;5093133;28;20987;-77
2022/10/28 01:05:20;;;;;;;6.47;5.40;;;21.20;87.80;;;;;;5100002;28;20491;-77
2022/10/28 01:07:50;;;;;;;6.50;5.40;;;21.20;87.90;;;;;;5103793;28;20486;-77
2022/10/28 01:10:19;;;;;;;9.20;5.70;;;21.20;88.00;;;;;;5092822;28;20473;-77
2022/10/28 01:12:56;;;;;;;6.70;5.40;;;21.20;88.10;;;;;;5092135;28;20472;-77
2022/10/28 01:15:28;;;;;;;9.30;6.10;;;21.20;88.30;;;;;;5090584;28;20419;-77
2022/10/28 01:17:59;;;;;;;6.97;5.63;;;21.20;88.50;;;;;;5092578;28;20453;-77
2022/10/28 01:20:39;;;;;;;8.70;5.10;;;21.20;88.60;;;;;;5092733;28;20445;-77
2022/10/28 01:23:13;;;;;;;6.00;5.40;;;21.20;88.70;;;;;;5093061;28;21247;-77
2022/10/28 01:26:08;;;;;;;5.47;4.97;;;21.10;88.70;;;;;;5092884;28;20448;-77
2022/10/28 01:28:57;;;;;;;6.43;5.77;;;21.10;88.70;;;;;;5072510;28;20456;-77
2022/10/28 01:31:33;;;;;;;6.07;5.10;;;21.10;89.00;;;;;;5077846;28;20929;-77
2022/10/28 01:34:07;;;;;;;6.40;5.40;;;21.10;89.20;;;;;;5091979;28;21035;-77
2022/10/28 01:36:38;;;;;;;5.50;5.00;;;21.10;89.40;;;;;;5092573;28;20427;-77
2022/10/28 01:39:12;;;;;;;5.40;4.90;;;21.00;89.40;;;;;;5092945;28;20506;-77
2022/10/28 01:41:45;;;;;;;6.37;5.60;;;21.00;89.70;;;;;;5092861;28;20464;-77
2022/10/28 01:44:15;;;;;;;5.93;5.30;;;21.00;89.90;;;;;;5091252;28;20858;-77
2022/10/28 01:46:47;;;;;;;6.40;4.93;;;21.00;90.00;;;;;;5091714;28;20452;-77
2022/10/28 01:49:16;;;;;;;5.20;4.80;;;21.00;90.00;;;;;;5092205;28;20449;-77
2022/10/28 01:51:45;;;;;;;6.10;5.53;;;21.00;90.10;;;;;;5092170;28;20449;-77
2022/10/28 01:54:14;;;;;;;7.90;4.97;;;21.00;90.10;;;;;;5091427;28;20439;-76
2022/10/28 01:56:42;;;;;;;5.40;4.90;;;21.00;90.10;;;;;;5092783;28;20411;-76
2022/10/28 01:59:12;;;;;;;5.30;4.80;;;21.00;90.20;;;;;;5088821;28;20449;-77
2022/10/28 02:01:40;;;;;;;6.67;5.80;;;21.00;90.20;;;;;;5091109;28;20495;-77
2022/10/28 02:04:09;;;;;;;7.90;6.00;;;21.00;90.30;;;;;;5091095;28;20447;-77
2022/10/28 02:06:37;;;;;;;5.93;5.20;;;20.90;90.30;;;;;;5092128;28;20460;-77
2022/10/28 02:09:10;;;;;;;5.60;5.10;;;21.00;90.40;;;;;;5091313;28;20955;-77
2022/10/28 02:12:01;;;;;;;6.07;5.50;;;20.90;90.40;;;;;;5092030;28;20420;-77
2022/10/28 02:14:38;;;;;;;5.20;4.70;;;20.90;90.40;;;;;;5091097;28;20491;-77
2022/10/28 02:17:10;;;;;;;5.57;4.80;;;20.90;90.50;;;;;;5086569;28;20445;-77
2022/10/28 02:19:43;;;;;;;5.60;5.10;;;20.90;90.60;;;;;;5090896;28;20449;-77
2022/10/28 02:22:15;;;;;;;5.80;5.30;;;20.90;90.70;;;;;;5091767;28;20439;-76
2022/10/28 02:24:48;;;;;;;6.60;5.00;;;20.80;90.70;;;;;;5090870;28;20488;-77
2022/10/28 02:27:17;;;;;;;5.37;4.87;;;20.80;90.70;;;;;;5092136;28;20403;-77
2022/10/28 02:29:47;;;;;;;6.10;5.03;;;20.80;90.80;;;;;;5091690;28;20452;-77
2022/10/28 02:32:17;;;;;;;4.70;4.30;;;20.80;90.90;;;;;;5091592;28;20422;-77
2022/10/28 02:34:47;;;;;;;7.50;5.40;;;20.80;90.90;;;;;;5091794;28;20453;-77
2022/10/28 02:37:17;;;;;;;5.77;5.27;;;20.80;91.00;;;;;;5092389;28;20403;-77
2022/10/28 02:39:47;;;;;;;6.83;5.67;;;20.80;90.90;;;;;;5091278;28;20468;-77
2022/10/28 02:42:17;;;;;;;7.73;5.07;;;20.80;91.30;;;;;;5079884;28;20473;-77
2022/10/28 02:44:47;;;;;;;5.23;4.77;;;20.80;91.00;;;;;;5079770;28;20449;-77
2022/10/28 02:47:18;;;;;;;5.63;5.10;;;20.80;91.10;;;;;;5091193;28;20468;-77
2022/10/28 02:49:49;;;;;;;7.40;5.47;;;20.70;91.00;;;;;;5090690;28;20436;-77
2022/10/28 02:52:17;;;;;;;4.77;4.37;;;20.70;91.10;;;;;;5089676;28;20934;-77
2022/10/28 02:54:47;;;;;;;5.30;4.80;;;20.70;91.10;;;;;;5091155;28;20459;-77
2022/10/28 02:57:16;;;;;;;5.67;4.90;;;20.70;91.20;;;;;;5093986;28;21045;-77
2022/10/28 02:59:48;;;;;;;4.93;4.53;;;20.70;91.20;;;;;;5094455;28;20448;-76
2022/10/28 03:02:16;;;;;;;5.57;4.80;;;20.70;91.20;;;;;;5084850;28;20464;-76
2022/10/28 03:04:44;;;;;;;5.23;4.73;;;20.70;91.30;;;;;;5094948;28;20455;-76
2022/10/28 03:07:13;;;;;;;4.97;4.50;;;20.70;91.30;;;;;;5094910;28;20452;-76
2022/10/28 03:09:40;;;;;;;6.07;4.87;;;20.70;91.40;;;;;;5095308;28;20455;-77
2022/10/28 03:12:08;;;;;;;5.50;5.00;;;20.70;91.40;;;;;;5095049;28;20440;-76
2022/10/28 03:14:36;;;;;;;5.30;4.80;;;20.70;91.50;;;;;;5093603;28;20441;-77
2022/10/28 03:17:06;;;;;;;4.80;4.40;;;20.70;91.40;;;;;;5095642;28;20474;-76
2022/10/28 03:19:34;;;;;;;4.73;4.33;;;20.70;91.50;;;;;;5094364;28;20445;-76
2022/10/28 03:22:02;;;;;;;5.23;4.70;;;20.70;91.60;;;;;;5095019;28;20470;-76
2022/10/28 03:24:31;;;;;;;5.77;5.17;;;20.70;91.90;;;;;;5093638;28;20456;-76
2022/10/28 03:26:59;;;;;;;5.80;5.23;;;20.60;91.70;;;;;;5095510;28;20404;-77
2022/10/28 03:29:27;;;;;;;5.20;4.70;;;20.60;91.80;;;;;;5094977;28;20432;-77
2022/10/28 03:31:55;;;;;;;4.93;4.47;;;20.60;91.80;;;;;;5094626;28;20432;-76
2022/10/28 03:34:22;;;;;;;5.03;4.53;;;20.60;91.80;;;;;;5088325;28;20494;-76
2022/10/28 03:36:50;;;;;;;5.10;4.60;;;20.60;91.90;;;;;;5094635;28;20459;-76
2022/10/28 03:39:19;;;;;;;5.03;4.63;;;20.60;91.90;;;;;;5094548;28;20448;-76
2022/10/28 03:41:48;;;;;;;5.13;4.47;;;20.60;91.90;;;;;;5074384;28;20812;-76
2022/10/28 03:44:16;;;;;;;5.90;5.20;;;20.60;92.00;;;;;;5078597;28;20469;-77
2022/10/28 03:46:44;;;;;;;5.40;4.90;;;20.50;92.00;;;;;;5094514;28;20445;-77
2022/10/28 03:49:12;;;;;;;5.40;4.90;;;20.50;92.00;;;;;;5094144;28;21032;-76
2022/10/28 03:51:40;;;;;;;4.90;4.50;;;20.50;92.10;;;;;;5090689;28;21040;-77
2022/10/28 03:54:08;;;;;;;4.73;4.33;;;20.50;92.10;;;;;;5094985;28;20431;-76
2022/10/28 03:56:38;;;;;;;5.80;5.03;;;20.50;92.10;;;;;;5092151;28;20449;-76
2022/10/28 03:59:08;;;;;;;4.83;4.43;;;20.50;92.20;;;;;;5094017;28;20445;-77
2022/10/28 04:01:36;;;;;;;6.00;4.60;;;20.50;92.30;;;;;;5093993;28;20460;-76
2022/10/28 04:04:05;;;;;;;5.43;4.93;;;20.50;92.30;;;;;;5088396;28;20459;-76
2022/10/28 04:06:33;;;;;;;5.07;4.40;;;20.50;92.40;;;;;;5091640;28;20464;-76
2022/10/28 04:09:01;;;;;;;4.90;4.40;;;20.40;92.40;;;;;;5094693;28;20425;-76
2022/10/28 04:11:29;;;;;;;5.17;4.77;;;20.40;92.40;;;;;;5094611;28;20452;-76
2022/10/28 04:13:57;;;;;;;4.90;4.50;;;20.40;92.50;;;;;;5092662;28;20471;-77
2022/10/28 04:16:26;;;;;;;5.10;4.70;;;20.40;92.50;;;;;;5093355;28;20440;-76
2022/10/28 04:18:54;;;;;;;4.50;4.10;;;20.40;92.60;;;;;;5093204;28;20416;-76
2022/10/28 04:21:22;;;;;;;5.27;4.50;;;20.40;92.70;;;;;;5093641;28;20424;-76
2022/10/28 04:23:50;;;;;;;4.80;4.30;;;20.30;92.60;;;;;;5083022;28;20462;-76
2022/10/28 04:26:18;;;;;;;4.70;4.30;;;20.30;92.70;;;;;;5091217;28;20460;-77
2022/10/28 04:28:46;;;;;;;6.43;4.57;;;20.30;92.70;;;;;;5092970;28;20459;-76
2022/10/28 04:31:14;;;;;;;4.90;4.50;;;20.30;92.80;;;;;;5093910;28;20449;-77
2022/10/28 04:33:43;;;;;;;4.90;4.40;;;20.30;92.80;;;;;;5093633;28;20443;-76
2022/10/28 04:36:11;;;;;;;5.37;4.87;;;20.30;92.90;;;;;;5092507;28;20452;-76
2022/10/28 04:38:39;;;;;;;4.60;4.20;;;20.30;93.00;;;;;;5092327;28;20880;-77
2022/10/28 04:41:08;;;;;;;4.20;3.90;;;20.30;93.00;;;;;;5094220;28;20448;-77
2022/10/28 04:43:36;;;;;;;4.50;4.10;;;20.30;93.10;;;;;;5092533;28;20479;-77
2022/10/28 04:46:04;;;;;;;4.20;3.90;;;20.20;93.10;;;;;;5094053;28;20461;-77
2022/10/28 04:48:32;;;;;;;4.60;4.20;;;20.20;93.10;;;;;;5080645;28;20464;-77
2022/10/28 04:51:02;;;;;;;5.10;4.60;;;20.20;93.20;;;;;;5089517;28;20452;-77
2022/10/28 04:53:30;;;;;;;4.90;4.50;;;20.20;93.30;;;;;;5090861;28;20447;-77
2022/10/28 04:55:58;;;;;;;4.33;4.03;;;20.20;93.30;;;;;;5093644;28;20452;-77
2022/10/28 04:58:26;;;;;;;4.80;4.40;;;20.20;93.30;;;;;;5084886;28;20448;-78
2022/10/28 05:00:54;;;;;;;4.13;3.80;;;20.20;93.30;;;;;;5091486;28;20480;-77
2022/10/28 05:03:23;;;;;;;4.80;4.40;;;20.10;93.40;;;;;;5092627;28;20468;-77
2022/10/28 05:05:50;;;;;;;4.50;4.10;;;20.10;93.40;;;;;;5091463;28;20457;-76
2022/10/28 05:08:20;;;;;;;4.93;4.17;;;20.10;93.50;;;;;;5092895;28;20464;-76
2022/10/28 05:10:49;;;;;;;3.83;3.53;;;20.10;93.50;;;;;;5093342;28;20436;-77
2022/10/28 05:13:17;;;;;;;4.73;4.27;;;20.10;93.60;;;;;;5092462;28;20475;-77
2022/10/28 05:15:47;;;;;;;4.60;4.20;;;20.10;93.60;;;;;;5091240;28;20460;-77
2022/10/28 05:18:15;;;;;;;6.13;4.40;;;20.00;93.60;;;;;;5091372;28;20456;-77
2022/10/28 05:20:43;;;;;;;4.10;3.70;;;20.10;93.70;;;;;;5092470;28;20434;-78
2022/10/28 05:23:11;;;;;;;4.40;4.00;;;20.00;93.80;;;;;;5091896;28;20476;-77
2022/10/28 05:25:40;;;;;;;4.00;3.70;;;20.00;93.80;;;;;;5092816;28;20453;-77
2022/10/28 05:28:08;;;;;;;4.30;4.00;;;20.00;93.90;;;;;;5091136;28;20449;-77
2022/10/28 05:30:36;;;;;;;4.87;4.47;;;20.00;93.80;;;;;;5082141;28;20490;-77
2022/10/28 05:33:04;;;;;;;4.13;3.80;;;20.00;93.80;;;;;;5092359;28;20472;-77
2022/10/28 05:35:33;;;;;;;4.37;3.97;;;20.00;94.00;;;;;;5092251;28;20457;-77
2022/10/28 05:38:00;;;;;;;4.13;3.83;;;20.00;93.90;;;;;;5092606;28;20468;-77
2022/10/28 05:40:31;;;;;;;4.07;3.77;;;20.00;94.00;;;;;;5093007;28;20452;-77
2022/10/28 05:43:00;;;;;;;4.50;4.10;;;19.90;93.90;;;;;;5093055;28;20473;-77
2022/10/28 05:45:28;;;;;;;4.83;4.00;;;20.00;94.10;;;;;;5092286;28;20449;-77
2022/10/28 05:47:57;;;;;;;4.60;4.00;;;20.00;94.20;;;;;;5091924;28;20467;-77
2022/10/28 05:50:26;;;;;;;7.20;4.93;;;19.90;94.10;;;;;;5092315;28;20452;-77
2022/10/28 05:52:54;;;;;;;4.27;3.83;;;20.00;94.30;;;;;;5092386;28;20468;-77
2022/10/28 05:55:23;;;;;;;4.13;3.83;;;19.90;94.20;;;;;;5091364;28;20455;-77
2022/10/28 05:57:51;;;;;;;4.00;3.70;;;19.90;94.30;;;;;;5092242;28;20467;-77
2022/10/28 06:00:22;;;;;;;3.87;3.60;;;19.90;94.40;;;;;;5092805;28;20436;-77
2022/10/28 06:02:50;;;;;;;4.60;3.80;;;19.90;94.70;;;;;;5091033;28;20476;-77
2022/10/28 06:05:18;;;;;;;4.90;4.10;;;19.90;94.40;;;;;;5090802;28;20473;-78
2022/10/28 06:07:46;;;;;;;3.97;3.67;;;19.90;94.40;;;;;;5091635;28;20446;-78
2022/10/28 06:10:15;;;;;;;3.87;3.50;;;19.90;94.50;;;;;;5090463;28;20456;-78
2022/10/28 06:12:43;;;;;;;4.50;4.10;;;19.80;94.40;;;;;;5091434;28;20472;-77
2022/10/28 06:15:11;;;;;;;4.20;3.80;;;19.80;94.40;;;;;;5091582;28;20448;-78
2022/10/28 06:17:40;;;;;;;4.57;4.17;;;19.80;94.40;;;;;;5091236;28;20461;-78
2022/10/28 06:20:09;;;;;;;4.97;4.17;;;19.80;94.60;;;;;;5086192;28;20454;-78
2022/10/28 06:22:37;;;;;;;4.00;3.60;;;19.80;94.70;;;;;;5092020;28;20464;-78
2022/10/28 06:25:06;;;;;;;3.70;3.50;;;19.80;94.60;;;;;;5090166;28;20481;-77
2022/10/28 06:27:34;;;;;;;4.40;3.67;;;19.80;94.70;;;;;;5089101;28;20445;-78
2022/10/28 06:30:02;;;;;;;4.40;4.07;;;19.80;94.60;;;;;;5091908;28;20464;-77
2022/10/28 06:32:30;;;;;;;4.77;4.37;;;19.80;94.70;;;;;;5094575;28;20477;-77
2022/10/28 06:34:59;;;;;;;3.77;3.47;;;19.80;94.60;;;;;;5093116;28;20449;-78
2022/10/28 06:37:27;;;;;;;4.50;4.10;;;19.80;94.70;;;;;;5094759;28;20410;-77
2022/10/28 06:39:57;;;;;;;3.80;3.50;;;19.80;94.70;;;;;;5113873;28;20447;-77
2022/10/28 06:42:26;;;;;;;4.03;3.73;;;19.80;94.70;;;;;;5095534;28;20475;-78
2022/10/28 06:44:54;;;;;;;4.00;3.70;;;19.80;94.70;;;;;;5094377;28;20464;-77
2022/10/28 06:47:22;;;;;;;4.20;3.90;;;19.80;94.70;;;;;;5082926;28;20453;-77
2022/10/28 06:49:50;;;;;;;4.07;3.67;;;19.80;94.80;;;;;;5089541;28;20452;-77
2022/10/28 06:52:19;;;;;;;3.70;3.40;;;19.80;94.80;;;;;;5092310;28;20452;-76
2022/10/28 06:54:47;;;;;;;3.90;3.60;;;19.80;94.80;;;;;;5095359;28;20454;-77
2022/10/28 06:57:15;;;;;;;3.73;3.40;;;19.80;94.90;;;;;;5094838;28;20435;-76
2022/10/28 06:59:43;;;;;;;3.80;3.50;;;19.80;94.80;;;;;;5094209;28;20465;-76
2022/10/28 07:02:12;;;;;;;4.23;3.83;;;19.80;94.90;;;;;;5094498;28;20452;-76
2022/10/28 07:04:40;;;;;;;4.40;4.10;;;19.80;94.90;;;;;;5094933;28;20521;-76
2022/10/28 07:07:08;;;;;;;5.90;3.80;;;19.80;95.00;;;;;;5094873;28;20457;-77
2022/10/28 07:09:38;;;;;;;3.63;3.33;;;19.80;94.90;;;;;;5095753;28;20460;-77
2022/10/28 07:12:07;;;;;;;4.30;3.93;;;19.90;94.90;;;;;;5095423;28;20444;-77
2022/10/28 07:14:35;;;;;;;3.87;3.57;;;19.90;94.90;;;;;;5093786;28;20422;-76
2022/10/28 07:17:03;;;;;;;3.70;3.47;;;19.90;94.90;;;;;;5095023;28;20453;-77
2022/10/28 07:19:31;;;;;;;3.70;3.30;;;19.90;94.80;;;;;;5092677;28;20441;-77
2022/10/28 07:21:58;;;;;;;3.67;3.37;;;19.90;94.80;;;;;;5094666;28;20447;-77
2022/10/28 07:24:26;;;;;;;3.97;3.67;;;19.90;94.90;;;;;;5094317;28;20472;-77
2022/10/28 07:27:00;;;;;;;3.67;3.37;;;20.00;94.90;;;;;;5093528;28;20444;-77
2022/10/28 07:29:28;;;;;;;3.67;3.40;;;20.00;94.80;;;;;;5092231;28;20453;-77
2022/10/28 07:31:57;;;;;;;4.00;3.60;;;20.00;95.10;;;;;;5093888;28;20453;-77
2022/10/28 07:34:25;;;;;;;3.60;3.30;;;20.00;94.70;;;;;;5095215;28;20448;-77
2022/10/28 07:36:54;;;;;;;3.70;3.43;;;20.00;94.70;;;;;;5093926;28;20445;-77
2022/10/28 07:39:22;;;;;;;3.90;3.50;;;20.00;94.70;;;;;;5095584;28;20444;-77
2022/10/28 07:41:50;;;;;;;4.03;3.67;;;20.10;94.70;;;;;;5092758;28;20540;-77
2022/10/28 07:44:20;;;;;;;3.70;3.40;;;20.10;94.60;;;;;;5086050;28;20469;-77
2022/10/28 07:46:48;;;;;;;3.73;3.43;;;20.10;94.60;;;;;;5089424;28;20458;-77
2022/10/28 07:49:19;;;;;;;4.40;3.70;;;20.10;94.50;;;;;;5095110;28;20424;-77
2022/10/28 07:51:49;;;;;;;4.03;3.73;;;20.20;94.50;;;;;;5093326;28;20460;-77
2022/10/28 07:54:17;;;;;;;3.77;3.53;;;20.20;94.30;;;;;;5095020;28;20444;-77
2022/10/28 07:56:45;;;;;;;3.40;3.20;;;20.20;94.30;;;;;;5095251;28;20432;-77
2022/10/28 07:59:13;;;;;;;3.40;3.20;;;20.30;94.20;;;;;;5095141;28;20437;-76
2022/10/28 08:01:43;;;;;;;3.90;3.60;;;20.30;94.10;;;;;;5094874;28;20447;-76
2022/10/28 08:04:11;;;;;;;4.10;3.77;;;20.30;94.00;;;;;;5094966;28;20538;-76
2022/10/28 08:06:39;;;;;;;4.17;3.77;;;20.40;93.90;;;;;;5090377;28;20453;-76
2022/10/28 08:09:07;;;;;;;4.23;3.83;;;20.40;93.80;;;;;;5093979;28;20437;-76
2022/10/28 08:11:35;;;;;;;3.60;3.40;;;20.50;93.80;;;;;;5095112;28;20424;-78
2022/10/28 08:14:03;;;;;;;4.10;3.70;;;20.50;93.60;;;;;;5094624;28;20450;-76
2022/10/28 08:16:31;;;;;;;4.13;3.50;;;20.60;93.60;;;;;;5093266;28;20854;-76
2022/10/28 08:19:01;;;;;;;3.33;3.13;;;20.60;93.50;;;;;;5091706;28;20454;-76
2022/10/28 08:21:34;;;;;;;3.40;3.10;;;20.70;93.40;;;;;;5088789;28;20486;-76
2022/10/28 08:24:02;;;;;;;4.07;3.70;;;20.80;93.30;;;;;;5094381;28;20468;-77
2022/10/28 08:26:30;;;;;;;4.00;3.70;;;20.90;93.30;;;;;;5093685;28;20465;-77
2022/10/28 08:29:00;;;;;;;3.83;3.33;;;21.00;93.20;;;;;;5093905;28;20433;-77
2022/10/28 08:31:28;;;;;;;3.80;3.50;;;21.20;93.10;;;;;;5094044;28;20415;-77
2022/10/28 08:33:56;;;;;;;4.83;3.80;;;21.40;92.80;;;;;;5094304;28;20469;-77
2022/10/28 08:36:25;;;;;;;5.40;3.27;;;21.60;92.70;;;;;;5094622;28;20449;-77
2022/10/28 08:38:53;;;;;;;4.07;3.23;;;21.70;92.60;;;;;;5093946;28;20422;-78
2022/10/28 08:41:28;;;;;;;6.33;3.90;;;21.80;92.50;;;;;;5093812;28;20445;-77
2022/10/28 08:44:04;;;;;;;3.70;3.40;;;22.00;92.40;;;;;;5095902;28;20468;-78
2022/10/28 08:46:42;;;;;;;3.93;3.60;;;22.20;92.30;;;;;;5097285;28;20488;-78
2022/10/28 08:49:12;;;;;;;3.70;3.40;;;22.30;92.00;;;;;;5097307;28;20451;-78
2022/10/28 08:51:44;;;;;;;4.17;3.77;;;22.40;91.80;;;;;;5096331;28;20429;-78
2022/10/28 08:54:14;;;;;;;3.53;3.23;;;22.60;91.60;;;;;;5095056;28;20560;-77
2022/10/28 08:56:44;;;;;;;4.50;3.37;;;22.70;91.50;;;;;;5092869;28;20443;-77
2022/10/28 08:59:14;;;;;;;4.00;3.60;;;22.90;91.40;;;;;;5094465;28;20411;-78
2022/10/28 09:01:43;;;;;;;3.50;3.20;;;22.90;91.20;;;;;;5094450;28;20412;-78
2022/10/28 09:04:16;;;;;;;6.30;3.70;;;23.10;91.10;;;;;;5094240;28;20471;-78
2022/10/28 09:06:45;;;;;;;5.00;3.37;;;23.20;90.80;;;;;;5094127;28;20465;-77
2022/10/28 09:09:17;;;;;;;8.77;3.83;;;23.30;90.70;;;;;;5093539;28;20448;-77
2022/10/28 09:11:53;;;;;;;4.30;3.30;;;23.40;90.40;;;;;;5093514;28;20449;-77
2022/10/28 09:14:30;;;;;;;8.53;3.43;;;23.60;90.30;;;;;;5091563;28;20447;-77
2022/10/28 09:17:03;;;;;;;5.33;2.93;;;23.60;90.20;;;;;;5093615;28;20426;-78
2022/10/28 09:19:43;;;;;;;3.90;3.50;;;23.70;90.00;;;;;;5094282;28;20421;-76
2022/10/28 09:22:24;;;;;;;3.60;3.40;;;23.80;89.90;;;;;;5094692;28;20440;-77
2022/10/28 09:24:54;;;;;;;6.50;3.60;;;23.90;89.70;;;;;;5095450;28;20437;-77
2022/10/28 09:27:42;;;;;;;8.63;3.80;;;24.00;89.50;;;;;;5094380;28;20423;-77
2022/10/28 09:30:26;;;;;;;4.03;3.63;;;24.10;89.20;;;;;;5107986;28;20422;-78
2022/10/28 09:33:00;;;;;;;3.60;3.30;;;24.30;88.90;;;;;;5113469;28;20461;-78
2022/10/28 09:35:30;;;;;;;5.00;3.20;;;24.40;88.50;;;;;;5113032;28;20472;-80
2022/10/28 09:38:02;;;;;;;3.93;3.20;;;24.40;89.20;;;;;;5115825;28;20453;-78
2022/10/28 09:40:31;;;;;;;7.90;3.20;;;24.70;89.00;;;;;;5114506;28;20412;-78
2022/10/28 09:43:00;;;;;;;6.33;3.70;;;24.80;88.70;;;;;;5114891;28;20463;-77
2022/10/28 09:45:30;;;;;;;3.00;2.80;;;24.90;88.40;;;;;;5114224;28;20459;-78
2022/10/28 09:47:59;;;;;;;13.90;3.20;;;25.10;88.10;;;;;;5114606;28;20395;-78
2022/10/28 09:50:28;;;;;;;4.23;3.67;;;25.20;88.00;;;;;;5112074;28;20441;-76
2022/10/28 09:53:02;;;;;;;4.70;3.20;;;25.40;87.80;;;;;;5104601;28;20458;-78
2022/10/28 09:55:31;;;;;;;9.97;3.53;;;25.50;87.40;;;;;;5093085;28;20902;-77
2022/10/28 09:57:59;;;;;;;7.60;3.60;;;25.70;86.90;;;;;;5093385;28;20528;-76
2022/10/28 10:00:27;;;;;;;4.83;3.77;;;25.90;86.40;;;;;;5093418;28;20445;-77
2022/10/28 10:02:57;;;;;;;11.20;3.80;;;26.00;86.00;;;;;;5089652;28;20469;-76
2022/10/28 10:05:25;;;;;;;7.40;3.57;;;26.30;85.30;;;;;;5088835;28;20428;-77
2022/10/28 10:07:55;;;;;;;4.97;3.27;;;26.60;84.00;;;;;;5092212;28;20807;-77
2022/10/28 10:10:26;;;;;;;6.67;3.70;;;26.80;83.10;;;;;;5092653;28;20421;-76
2022/10/28 10:12:56;;;;;;;5.93;3.53;;;26.90;82.30;;;;;;5091593;28;20450;-76
2022/10/28 10:15:30;;;;;;;3.83;3.03;;;27.10;81.80;;;;;;5092517;28;20467;-76
2022/10/28 10:17:58;;;;;;;6.00;3.13;;;27.10;81.20;;;;;;5092845;28;20396;-77
2022/10/28 10:20:26;;;;;;;5.30;3.70;;;27.20;80.90;;;;;;5092485;28;20842;-77
2022/10/28 10:22:54;;;;;;;5.90;2.83;;;27.20;81.20;;;;;;5092481;28;20650;-77
2022/10/28 10:25:28;;;;;;;9.57;3.50;;;27.20;80.40;;;;;;5092175;28;20408;-77
2022/10/28 10:27:59;;;;;;;8.90;3.67;;;27.30;80.50;;;;;;5091912;28;20456;-77
2022/10/28 10:30:29;;;;;;;6.27;3.70;;;27.30;80.20;;;;;;5092426;28;20445;-77
2022/10/28 10:32:57;;;;;;;7.50;3.83;;;27.20;80.20;;;;;;5092185;28;20448;-78
2022/10/28 10:35:26;;;;;;;7.83;3.70;;;27.20;80.50;;;;;;5090859;28;20456;-77
2022/10/28 10:37:55;;;;;;;9.60;3.63;;;27.20;80.70;;;;;;5090617;28;20419;-77
2022/10/28 10:40:25;;;;;;;4.40;3.43;;;27.20;80.90;;;;;;5092623;28;20412;-77
2022/10/28 10:42:53;;;;;;;6.47;3.70;;;27.20;81.00;;;;;;5091017;28;20498;-77
2022/10/28 10:45:40;;;;;;;9.93;4.47;;;27.30;81.00;;;;;;5087955;28;20410;-76
2022/10/28 10:48:12;;;;;;;10.87;4.53;;;27.40;80.80;;;;;;5090575;28;20459;-77
2022/10/28 10:50:40;;;;;;;7.67;4.40;;;27.60;80.90;;;;;;5091592;28;20436;-78
2022/10/28 10:53:16;;;;;;;4.63;4.03;;;27.70;80.30;;;;;;5090326;28;20872;-78
2022/10/28 10:55:49;;;;;;;5.90;3.87;;;27.70;79.90;;;;;;5081578;28;20441;-77
2022/10/28 10:58:20;;;;;;;7.50;4.33;;;27.80;79.70;;;;;;5092304;28;20440;-77
2022/10/28 11:00:52;;;;;;;5.50;3.80;;;27.90;79.50;;;;;;5091479;28;20455;-76
2022/10/28 11:03:22;;;;;;;12.70;3.67;;;28.00;79.30;;;;;;5096597;28;20529;-79
2022/10/28 11:05:51;;;;;;;11.70;3.50;;;27.70;76.80;;;;;;5100188;28;20436;-79
2022/10/28 11:08:39;;;;;;;11.60;4.20;;;27.10;78.50;;;;;;5109453;28;20448;-82
2022/10/28 11:11:13;;;;;;;9.73;3.70;;;26.80;79.60;;;;;;5107302;28;20492;-80
2022/10/28 11:13:43;;;;;;;15.53;4.20;;;26.60;80.50;;;;;;5110335;28;20457;-80
2022/10/28 11:16:20;;;;;;;17.40;4.80;;;26.40;81.10;;;;;;5110486;28;20437;-82
2022/10/28 11:18:52;;;;;;;13.63;4.40;;;26.30;82.20;;;;;;5109143;28;20484;-80
2022/10/28 11:21:48;;;;;;;11.23;4.07;;;26.40;82.80;;;;;;5103485;28;20453;-79
2022/10/28 11:24:24;;;;;;;21.97;4.83;;;26.40;82.90;;;;;;5047900;28;20475;-80
2022/10/28 11:26:56;;;;;;;12.93;3.97;;;26.50;83.30;;;;;;5096855;28;20473;-79
2022/10/28 11:29:24;;;;;;;12.27;3.83;;;26.50;83.10;;;;;;5104644;28;20445;-79
2022/10/28 11:32:04;;;;;;;21.03;4.60;;;26.50;83.10;;;;;;5106337;28;20424;-81
2022/10/28 11:34:44;;;;;;;14.80;4.30;;;26.40;83.20;;;;;;5104468;28;20493;-81
2022/10/28 11:37:14;;;;;;;8.10;3.97;;;26.50;83.70;;;;;;5112152;28;20512;-80
2022/10/28 11:39:46;;;;;;;13.17;4.50;;;26.50;83.60;;;;;;5111618;28;20426;-80
2022/10/28 11:42:21;;;;;;;17.53;4.73;;;26.60;83.50;;;;;;5112437;28;20443;-81
2022/10/28 11:44:52;;;;;;;32.03;5.87;;;26.60;83.70;;;;;;5110552;28;20410;-81
2022/10/28 11:47:32;;;;;;;10.97;4.70;;;26.70;85.40;;;;;;5114550;28;20519;-81
2022/10/28 11:50:11;;;;;;;12.83;5.43;;;26.80;83.50;;;;;;5108556;28;20423;-81
2022/10/28 11:52:48;;;;;;;14.93;5.57;;;26.70;84.10;;;;;;5105591;28;20448;-81
2022/10/28 11:55:20;;;;;;;16.43;5.97;;;26.60;84.90;;;;;;5112370;28;20432;-82
2022/10/28 11:57:55;;;;;;;14.13;6.20;;;26.60;85.70;;;;;;5110977;28;20464;-82
2022/10/28 12:00:29;;;;;;;15.30;6.63;;;26.50;86.00;;;;;;5113039;28;20468;-83
2022/10/28 12:03:12;;;;;;;16.50;7.10;;;26.50;86.50;;;;;;5110130;28;20468;-81
2022/10/28 12:05:41;;;;;;;15.30;6.67;;;26.40;86.80;;;;;;5103555;28;20447;-80
2022/10/28 12:08:15;;;;;;;17.10;6.93;;;26.50;86.20;;;;;;5103175;28;20453;-79
2022/10/28 12:10:53;;;;;;;21.50;9.83;;;26.40;86.30;;;;;;5108587;28;20900;-80
2022/10/28 12:13:28;;;;;;;17.47;10.97;;;26.40;86.70;;;;;;5083892;28;20435;-79
2022/10/28 12:15:59;;;;;;;18.30;10.60;;;26.30;87.50;;;;;;5091917;28;20444;-80
2022/10/28 12:18:29;;;;;;;20.60;9.50;;;26.30;88.00;;;;;;5106092;28;20424;-79
2022/10/28 12:20:59;;;;;;;23.07;9.50;;;26.20;88.40;;;;;;5111452;28;20445;-81
2022/10/28 12:23:27;;;;;;;20.50;8.47;;;26.30;88.80;;;;;;5112366;28;20469;-79
2022/10/28 12:25:56;;;;;;;15.43;9.07;;;26.30;88.40;;;;;;5108093;28;20416;-81
2022/10/28 12:28:27;;;;;;;28.10;9.47;;;26.30;88.60;;;;;;5104190;28;20468;-80
2022/10/28 12:30:55;;;;;;;20.90;8.43;;;26.10;89.70;;;;;;5103790;28;20434;-80
2022/10/28 12:33:25;;;;;;;15.33;8.20;;;26.10;90.00;;;;;;5107235;28;20472;-80
2022/10/28 12:35:55;;;;;;;18.70;7.90;;;26.00;90.40;;;;;;5105876;28;20453;-81
2022/10/28 12:38:25;;;;;;;18.20;7.60;;;26.00;90.50;;;;;;5102112;28;20427;-80
2022/10/28 12:40:55;;;;;;;17.40;7.53;;;25.90;90.60;;;;;;5104656;28;20445;-80
2022/10/28 12:43:27;;;;;;;18.60;7.60;;;25.90;90.70;;;;;;5097129;28;20534;-80
2022/10/28 12:45:55;;;;;;;21.53;7.70;;;26.00;90.60;;;;;;5102014;28;20425;-79
2022/10/28 12:48:27;;;;;;;24.07;7.27;;;26.10;90.30;;;;;;5098200;28;20468;-79
2022/10/28 12:50:59;;;;;;;33.37;7.50;;;26.20;90.20;;;;;;5098839;28;20422;-79
2022/10/28 12:53:30;;;;;;;22.57;7.27;;;26.30;89.40;;;;;;5099810;28;20438;-79
2022/10/28 12:55:59;;;;;;;22.07;7.00;;;26.30;88.90;;;;;;5093772;28;20453;-80
2022/10/28 12:58:31;;;;;;;15.87;7.23;;;26.30;88.70;;;;;;5091796;28;20418;-79
2022/10/28 13:01:01;;;;;;;12.50;6.73;;;26.30;88.70;;;;;;5099047;28;20415;-79